Time;durP1;ratioP1;P1;durP2;ratioP2;P2;SDS_P1;SDS_P2;PMS_P1;PMS_P2;Temp;Humidity;BMP_temperature;BMP_pressure;BME280_temperature;BME280_humidity;BME280_pressure;Samples;Min_cycle;Max_cycle;Signal;HPM_P1;HPM_P2
2023/05/18 00:01:56;;;;;;;;;;;;;;;-140.72;100.00;52780.47;5087455;28;19978;-72
2023/05/18 00:04:22;;;;;;;;;;;;;;;-140.72;100.00;52739.88;5090336;28;19955;-71
2023/05/18 00:06:55;;;;;;;;;;;;;;;-140.72;100.00;52804.81;5089539;28;19960;-72
2023/05/18 00:09:27;;;;;;;;;;;;;;;-140.72;100.00;52758.16;5094679;28;19920;-72
2023/05/18 00:11:53;;;;;;;;;;;;;;;-140.72;100.00;52764.25;5085903;28;19928;-72
2023/05/18 00:14:18;;;;;;;;;;;;;;;-140.72;100.00;52760.19;5084346;28;20392;-72
2023/05/18 00:16:43;;;;;;;;;;;;;;;-140.72;100.00;52792.66;5088692;28;19921;-71
2023/05/18 00:19:09;;;;;;;;;;;;;;;-140.72;100.00;52782.50;5087324;28;20293;-72
2023/05/18 00:21:34;;;;;;;;;;;;;;;-140.72;100.00;52750.03;5091442;28;19927;-72
2023/05/18 00:24:00;;;;;;;;;;;;;;;-140.72;100.00;52808.88;5095475;28;19920;-72
2023/05/18 00:26:25;;;;;;;;;;;;;;;-140.72;100.00;52766.25;5089837;28;19920;-72
2023/05/18 00:28:50;;;;;;;;;;;;;;;-140.72;100.00;52776.41;5080163;28;19921;-72
2023/05/18 00:31:16;;;;;;;;;;;;;;;-140.72;100.00;52758.16;5082729;28;20274;-72
2023/05/18 00:33:41;;;;;;;;;;;;;;;-140.72;100.00;52788.59;5079377;28;19946;-71
2023/05/18 00:36:06;;;;;;;;;;;;;;;-140.72;100.00;52796.72;5084932;28;19972;-71
2023/05/18 00:38:32;;;;;;;;;;;;;;;-140.72;100.00;52764.25;5091309;28;19919;-71
2023/05/18 00:40:57;;;;;;;;;;;;;;;-140.72;100.00;52804.81;5092798;28;20302;-71
2023/05/18 00:43:22;;;;;;;;;;;;;;;-140.72;100.00;52827.16;5084886;28;20387;-71
2023/05/18 00:45:47;;;;;;;;;;;;;;;-140.72;100.00;52768.28;5085022;28;19920;-71
2023/05/18 00:48:13;;;;;;;;;;;;;;;-140.72;100.00;52786.56;5089725;28;19963;-71
2023/05/18 00:50:38;;;;;;;;;;;;;;;-140.72;100.00;52790.63;5089589;28;19923;-71
2023/05/18 00:53:04;;;;;;;;;;;;;;;-140.72;100.00;52804.81;5094956;28;19920;-71
2023/05/18 00:55:29;;;;;;;;;;;;;;;-140.72;100.00;52817.00;5086681;28;19916;-71
2023/05/18 00:57:55;;;;;;;;;;;;;;;-140.72;100.00;52758.16;5079175;28;19924;-71
2023/05/18 01:00:21;;;;;;;;;;;;;;;-140.72;100.00;52764.25;5086894;28;19920;-71
2023/05/18 01:02:49;;;;;;;;;;;;;;;-140.72;100.00;52817.00;5087463;28;20348;-71
2023/05/18 01:05:16;;;;;;;;;;;;;;;-140.72;100.00;52748.00;5085732;28;20302;-71
2023/05/18 01:07:42;;;;;;;;;;;;;;;-140.72;100.00;52798.72;5083869;28;19920;-71
2023/05/18 01:10:09;;;;;;;;;;;;;;;-140.72;100.00;52796.72;5084787;28;20021;-71
2023/05/18 01:12:44;;;;;;;;;;;;;;;-140.72;100.00;52812.94;5085949;28;19926;-71
2023/05/18 01:15:17;;;;;;;;;;;;;;;-140.72;100.00;52814.97;5087054;28;19921;-71
2023/05/18 01:17:49;;;;;;;;;;;;;;;-140.72;100.00;52780.47;5083405;28;19959;-71
2023/05/18 01:20:32;;;;;;;;;;;;;;;-140.72;100.00;52758.16;5084721;28;20343;-70
2023/05/18 01:23:28;;;;;;;;;;;;;;;-140.72;100.00;52768.28;5083706;28;19928;-71
2023/05/18 01:25:57;;;;;;;;;;;;;;;-140.72;100.00;52780.47;5082467;28;19927;-70
2023/05/18 01:28:31;;;;;;;;;;;;;;;-140.72;100.00;52780.47;5079589;28;20329;-70
2023/05/18 01:31:16;;;;;;;;;;;;;;;-140.72;100.00;52786.56;5082582;28;19942;-70
2023/05/18 01:33:41;;;;;;;;;;;;;;;-140.72;100.00;52784.53;5085717;28;20007;-70
2023/05/18 01:36:20;;;;;;;;;;;;;;;-140.72;100.00;52800.75;5081103;28;20027;-70
2023/05/18 01:38:45;;;;;;;;;;;;;;;-140.72;100.00;52766.25;5087593;28;19920;-72
2023/05/18 01:41:11;;;;;;;;;;;;;;;-140.72;100.00;52806.84;5082617;28;20401;-72
2023/05/18 01:43:39;;;;;;;;;;;;;;;-140.72;100.00;52770.31;5079220;28;20414;-72
2023/05/18 01:46:13;;;;;;;;;;;;;;;-140.72;100.00;52784.53;5085260;28;19933;-72
2023/05/18 01:48:42;;;;;;;;;;;;;;;-140.72;100.00;52764.25;5091842;28;19979;-71
2023/05/18 01:51:12;;;;;;;;;;;;;;;-140.72;100.00;52788.59;5082921;28;19969;-71
2023/05/18 01:53:45;;;;;;;;;;;;;;;-140.72;100.00;52804.81;5083470;28;19956;-71
2023/05/18 01:56:11;;;;;;;;;;;;;;;-140.72;100.00;52780.47;5081121;28;19920;-71
2023/05/18 01:58:37;;;;;;;;;;;;;;;-140.72;100.00;52782.50;5092748;28;19954;-71
2023/05/18 02:01:03;;;;;;;;;;;;;;;-140.72;100.00;52760.19;5085260;28;19957;-71
2023/05/18 02:03:30;;;;;;;;;;;;;;;-140.72;100.00;52780.47;5085131;28;19927;-71
2023/05/18 02:05:55;;;;;;;;;;;;;;;-140.72;100.00;52756.13;5084028;28;19981;-71
2023/05/18 02:08:21;;;;;;;;;;;;;;;-140.72;100.00;52819.03;5090577;28;19920;-70
2023/05/18 02:10:46;;;;;;;;;;;;;;;-140.72;100.00;52812.94;5091388;28;19920;-71
2023/05/18 02:13:11;;;;;;;;;;;;;;;-140.72;100.00;52776.41;5088355;28;19917;-71
2023/05/18 02:15:36;;;;;;;;;;;;;;;-140.72;100.00;52776.41;5085797;28;20007;-71
2023/05/18 02:18:01;;;;;;;;;;;;;;;-140.72;100.00;52782.50;5080991;28;19929;-71
2023/05/18 02:20:31;;;;;;;;;;;;;;;-140.72;100.00;52821.06;5087072;28;19931;-70
2023/05/18 02:22:56;;;;;;;;;;;;;;;-140.72;100.00;52808.88;5088359;28;19921;-71
2023/05/18 02:25:21;;;;;;;;;;;;;;;-140.72;100.00;52808.88;5082552;28;20438;-71
2023/05/18 02:27:47;;;;;;;;;;;;;;;-140.72;100.00;52778.44;5088579;28;19932;-71
2023/05/18 02:30:13;;;;;;;;;;;;;;;-140.72;100.00;52754.09;5086456;28;20271;-71
2023/05/18 02:32:38;;;;;;;;;;;;;;;-140.72;100.00;52792.66;5088932;28;19920;-71
2023/05/18 02:35:07;;;;;;;;;;;;;;;-140.72;100.00;52792.66;5088798;28;19959;-71
2023/05/18 02:37:38;;;;;;;;;;;;;;;-140.72;100.00;52786.56;5088116;28;19927;-71
2023/05/18 02:40:04;;;;;;;;;;;;;;;-140.72;100.00;52774.38;5084730;28;19916;-70
2023/05/18 02:42:35;;;;;;;;;;;;;;;-140.72;100.00;52808.88;5084012;28;19917;-71
2023/05/18 02:45:01;;;;;;;;;;;;;;;-140.72;100.00;52784.53;5092618;28;19974;-71
2023/05/18 02:47:26;;;;;;;;;;;;;;;-140.72;100.00;52792.66;5084762;28;19916;-71
2023/05/18 02:49:51;;;;;;;;;;;;;;;-140.72;100.00;52804.81;5088199;28;20627;-71
2023/05/18 02:52:16;;;;;;;;;;;;;;;-140.72;100.00;52833.22;5083182;28;19951;-70
2023/05/18 02:54:42;;;;;;;;;;;;;;;-140.72;100.00;52782.50;5085114;28;19921;-71
2023/05/18 02:57:07;;;;;;;;;;;;;;;-140.72;100.00;52798.72;5083933;28;20293;-72
2023/05/18 02:59:32;;;;;;;;;;;;;;;-140.72;100.00;52821.06;5091170;28;20418;-70
2023/05/18 03:01:57;;;;;;;;;;;;;;;-140.72;100.00;52772.34;5088823;28;19927;-70
2023/05/18 03:04:24;;;;;;;;;;;;;;;-140.72;100.00;52804.81;5085233;28;19920;-70
2023/05/18 03:06:51;;;;;;;;;;;;;;;-140.72;100.00;52845.41;5080468;28;20089;-70
2023/05/18 03:09:18;;;;;;;;;;;;;;;-140.72;100.00;52798.72;5081838;28;20396;-70
2023/05/18 03:11:43;;;;;;;;;;;;;;;-140.72;100.00;52812.94;5095988;28;19916;-70
2023/05/18 03:14:08;;;;;;;;;;;;;;;-140.72;100.00;52800.75;5088330;28;19928;-70
2023/05/18 03:16:33;;;;;;;;;;;;;;;-140.72;100.00;52796.72;5083402;28;20411;-70
2023/05/18 03:19:00;;;;;;;;;;;;;;;-140.72;100.00;52790.63;5080921;28;21281;-71
2023/05/18 03:21:32;;;;;;;;;;;;;;;-140.72;100.00;52800.75;5082211;28;20385;-70
2023/05/18 03:23:57;;;;;;;;;;;;;;;-140.72;100.00;52802.78;5086516;28;20375;-70
2023/05/18 03:26:24;;;;;;;;;;;;;;;-140.72;100.00;52819.03;5087475;28;19963;-70
2023/05/18 03:28:50;;;;;;;;;;;;;;;-140.72;100.00;52823.09;5087376;28;20040;-71
2023/05/18 03:31:15;;;;;;;;;;;;;;;-140.72;100.00;52796.72;5087127;28;20011;-71
2023/05/18 03:33:40;;;;;;;;;;;;;;;-140.72;100.00;52790.63;5087543;28;19997;-70
2023/05/18 03:36:05;;;;;;;;;;;;;;;-140.72;100.00;52790.63;5089903;28;19923;-71
2023/05/18 03:38:31;;;;;;;;;;;;;;;-140.72;100.00;52790.63;5087015;28;19959;-71
2023/05/18 03:40:56;;;;;;;;;;;;;;;-140.72;100.00;52810.91;5082893;28;19916;-70
2023/05/18 03:43:24;;;;;;;;;;;;;;;-140.72;100.00;52827.16;5083104;28;20380;-70
2023/05/18 03:45:49;;;;;;;;;;;;;;;-140.72;100.00;52853.53;5083886;28;19999;-70
2023/05/18 03:48:15;;;;;;;;;;;;;;;-140.72;100.00;52756.13;5087486;28;20007;-70
2023/05/18 03:50:40;;;;;;;;;;;;;;;-140.72;100.00;52833.22;5082042;28;20338;-71
2023/05/18 03:53:05;;;;;;;;;;;;;;;-140.72;100.00;52817.00;5082379;28;19920;-70
2023/05/18 03:55:31;;;;;;;;;;;;;;;-140.72;100.00;52796.72;5082483;28;19920;-71
2023/05/18 03:57:57;;;;;;;;;;;;;;;-140.72;100.00;52808.88;5083851;28;19923;-71
2023/05/18 04:00:23;;;;;;;;;;;;;;;-140.72;100.00;52843.38;5086396;28;20362;-71
2023/05/18 04:02:50;;;;;;;;;;;;;;;-140.72;100.00;52812.94;5085032;28;19920;-70
2023/05/18 04:05:16;;;;;;;;;;;;;;;-140.72;100.00;52776.41;5085778;28;20003;-70
2023/05/18 04:07:45;;;;;;;;;;;;;;;-140.72;100.00;52821.06;5088988;28;20733;-70
2023/05/18 04:10:11;;;;;;;;;;;;;;;-140.72;100.00;52766.25;5086913;28;20378;-71
2023/05/18 04:12:37;;;;;;;;;;;;;;;-140.72;100.00;52800.75;5088636;28;19926;-71
2023/05/18 04:15:02;;;;;;;;;;;;;;;-140.72;100.00;52812.94;5084731;28;19916;-70
2023/05/18 04:17:28;;;;;;;;;;;;;;;-140.72;100.00;52784.53;5085340;28;19920;-70
2023/05/18 04:19:53;;;;;;;;;;;;;;;-140.72;100.00;52817.00;5090514;28;19916;-70
2023/05/18 04:22:20;;;;;;;;;;;;;;;-140.72;100.00;52814.97;5093015;28;20344;-71
2023/05/18 04:24:46;;;;;;;;;;;;;;;-140.72;100.00;52800.75;5080433;28;19924;-71
2023/05/18 04:27:12;;;;;;;;;;;;;;;-140.72;100.00;52804.81;5084766;28;19973;-71
2023/05/18 04:29:39;;;;;;;;;;;;;;;-140.72;100.00;52770.31;5082215;28;20406;-70
2023/05/18 04:32:09;;;;;;;;;;;;;;;-140.72;100.00;52800.75;5080714;28;19920;-71
2023/05/18 04:34:36;;;;;;;;;;;;;;;-140.72;100.00;52808.88;5091023;28;19972;-71
2023/05/18 04:37:04;;;;;;;;;;;;;;;-140.72;100.00;52802.78;5088702;28;19972;-71
2023/05/18 04:39:31;;;;;;;;;;;;;;;-140.72;100.00;52776.41;5092241;28;19920;-71
2023/05/18 04:41:59;;;;;;;;;;;;;;;-140.72;100.00;52802.78;5090371;28;20532;-71
2023/05/18 04:44:27;;;;;;;;;;;;;;;-140.72;100.00;52772.34;5087301;28;19966;-71
2023/05/18 04:46:53;;;;;;;;;;;;;;;-140.72;100.00;52782.50;5090506;28;19920;-71
2023/05/18 04:49:22;;;;;;;;;;;;;;;-140.72;100.00;52788.59;5079905;28;20443;-70
2023/05/18 04:51:48;;;;;;;;;;;;;;;-140.72;100.00;52804.81;5084109;28;20417;-70
2023/05/18 04:54:14;;;;;;;;;;;;;;;-140.72;100.00;52778.44;5085089;28;20295;-71
2023/05/18 04:56:40;;;;;;;;;;;;;;;-140.72;100.00;52780.47;5082157;28;19927;-71
2023/05/18 04:59:05;;;;;;;;;;;;;;;-140.72;100.00;52780.47;5094223;28;19920;-71
2023/05/18 05:01:30;;;;;;;;;;;;;;;-140.72;100.00;52764.25;5088784;28;19930;-71
2023/05/18 05:03:57;;;;;;;;;;;;;;;-140.72;100.00;52827.16;5093869;28;19954;-71
2023/05/18 05:06:22;;;;;;;;;;;;;;;-140.72;100.00;52774.38;5082198;28;20379;-71
2023/05/18 05:08:47;;;;;;;;;;;;;;;-140.72;100.00;52758.16;5088841;28;19928;-71
2023/05/18 05:11:12;;;;;;;;;;;;;;;-140.72;100.00;52788.59;5091393;28;19973;-71
2023/05/18 05:13:38;;;;;;;;;;;;;;;-140.72;100.00;52764.25;5091996;28;19920;-71
2023/05/18 05:16:03;;;;;;;;;;;;;;;-140.72;100.00;52788.59;5090216;28;19926;-70
2023/05/18 05:18:28;;;;;;;;;;;;;;;-140.72;100.00;52770.31;5090777;28;20394;-70
2023/05/18 05:20:53;;;;;;;;;;;;;;;-140.72;100.00;52760.19;5086374;28;20016;-71
2023/05/18 05:23:19;;;;;;;;;;;;;;;-140.72;100.00;52756.13;5090118;28;20007;-71
2023/05/18 05:25:44;;;;;;;;;;;;;;;-140.72;100.00;52772.34;5094584;28;19931;-70
2023/05/18 05:28:09;;;;;;;;;;;;;;;-140.72;100.00;52772.34;5085339;28;19927;-71
2023/05/18 05:30:35;;;;;;;;;;;;;;;-140.72;100.00;52788.59;5095901;28;19927;-71
2023/05/18 05:33:00;;;;;;;;;;;;;;;-140.72;100.00;52782.50;5084613;28;19920;-70
2023/05/18 05:35:28;;;;;;;;;;;;;;;-140.72;100.00;52741.91;5087137;28;19927;-70
2023/05/18 05:37:54;;;;;;;;;;;;;;;-140.72;100.00;52770.31;5097231;28;20010;-71
2023/05/18 05:40:19;;;;;;;;;;;;;;;-140.72;100.00;52723.66;5088735;28;20009;-71
2023/05/18 05:42:44;;;;;;;;;;;;;;;-140.72;100.00;52756.13;5090578;28;19966;-71
2023/05/18 05:45:17;;;;;;;;;;;;;;;-140.72;100.00;52748.00;5094003;28;20000;-70
2023/05/18 05:47:43;;;;;;;;;;;;;;;-140.72;100.00;52721.63;5086790;28;20060;-72
2023/05/18 05:50:08;;;;;;;;;;;;;;;-140.72;100.00;52780.47;5093765;28;19955;-71
2023/05/18 05:52:33;;;;;;;;;;;;;;;-140.72;100.00;52739.88;5093513;28;19916;-71
2023/05/18 05:54:59;;;;;;;;;;;;;;;-140.72;100.00;52750.03;5088030;28;19916;-73
2023/05/18 05:57:24;;;;;;;;;;;;;;;-140.72;100.00;52764.25;5093989;28;19926;-71
2023/05/18 05:59:50;;;;;;;;;;;;;;;-140.72;100.00;52760.19;5092218;28;20316;-71
2023/05/18 06:02:15;;;;;;;;;;;;;;;-140.72;100.00;52756.13;5094770;28;20019;-72
2023/05/18 06:04:40;;;;;;;;;;;;;;;-140.72;100.00;52697.28;5083468;28;20023;-72
2023/05/18 06:07:06;;;;;;;;;;;;;;;-140.72;100.00;52780.47;5091403;28;20347;-72
2023/05/18 06:09:31;;;;;;;;;;;;;;;-140.72;100.00;52758.16;5086361;28;19920;-72
2023/05/18 06:11:56;;;;;;;;;;;;;;;-140.72;100.00;52792.66;5082917;28;19994;-72
2023/05/18 06:17:25;;;;;;;;;;;;;;;-140.72;100.00;52782.50;5089609;28;19970;-72
2023/05/18 06:22:53;;;;;;;;;;;;;;;-140.72;100.00;52719.59;5087221;28;20395;-73
2023/05/18 06:25:18;;;;;;;;;;;;;;;-140.72;100.00;52750.03;5093419;28;19916;-71
2023/05/18 06:27:44;;;;;;;;;;;;;;;-140.72;100.00;52713.50;5089205;28;20006;-72
2023/05/18 06:30:10;;;;;;;;;;;;;;;-140.72;100.00;52695.25;5092273;28;19926;-71
2023/05/18 06:32:36;;;;;;;;;;;;;;;-140.72;100.00;52727.72;5092473;28;20022;-71
2023/05/18 06:35:02;;;;;;;;;;;;;;;-140.72;100.00;52743.94;5090763;28;20007;-71
2023/05/18 06:37:28;;;;;;;;;;;;;;;-140.72;100.00;52717.56;5098705;28;19928;-71
2023/05/18 06:39:53;;;;;;;;;;;;;;;-140.72;100.00;52737.84;5087249;28;19916;-71
2023/05/18 06:42:18;;;;;;;;;;;;;;;-140.72;100.00;52719.59;5085025;28;19927;-71
2023/05/18 06:44:43;;;;;;;;;;;;;;;-140.72;85.15;52748.00;5085664;28;19927;-72
2023/05/18 06:47:09;;;;;;;;;;;;;;;-140.72;53.86;52691.19;5087188;28;19940;-71
2023/05/18 06:49:34;;;;;;;;;;;;;;;-140.72;30.19;52707.41;5104894;28;19920;-73
2023/05/18 06:51:59;;;;;;;;;;;;;;;-140.72;22.65;52715.53;5102856;28;19915;-72
2023/05/18 06:54:25;;;;;;;;;;;;;;;-140.72;0.00;52699.31;5092885;28;19927;-72
2023/05/18 06:56:50;;;;;;;;;;;;;;;-140.72;0.00;52693.22;5088621;28;19920;-75
2023/05/18 06:59:15;;;;;;;;;;;;;;;-140.72;0.00;52709.44;5087281;28;19920;-73
2023/05/18 07:01:40;;;;;;;;;;;;;;;-140.72;0.00;52721.63;5078780;28;19923;-74
2023/05/18 07:04:06;;;;;;;;;;;;;;;-140.72;0.00;52674.94;5091320;28;19916;-74
2023/05/18 07:06:31;;;;;;;;;;;;;;;-140.72;0.00;52709.44;5082083;28;20011;-74
2023/05/18 07:08:56;;;;;;;;;;;;;;;-140.72;0.00;52668.84;5082932;28;19947;-74
2023/05/18 07:11:22;;;;;;;;;;;;;;;-140.72;0.00;52685.09;5089127;28;19923;-73
2023/05/18 07:13:47;;;;;;;;;;;;;;;-140.72;0.00;52693.22;5083296;28;19930;-72
2023/05/18 07:16:12;;;;;;;;;;;;;;;-140.72;0.00;52685.09;5086301;28;20359;-73
2023/05/18 07:18:38;;;;;;;;;;;;;;;-140.72;0.00;52652.63;5088529;28;20352;-73
2023/05/18 07:21:03;;;;;;;;;;;;;;;-140.72;0.00;52618.13;5083902;28;20287;-74
2023/05/18 07:23:28;;;;;;;;;;;;;;;-140.72;0.00;52666.84;5084225;28;19931;-74
2023/05/18 07:25:53;;;;;;;;;;;;;;;-140.72;0.00;52679.00;5099508;28;19970;-72
2023/05/18 07:28:19;;;;;;;;;;;;;;;-140.72;0.00;52662.78;5086428;28;19920;-72
2023/05/18 07:30:44;;;;;;;;;;;;;;;-140.72;0.00;52662.78;5105742;28;20232;-72
2023/05/18 07:33:09;;;;;;;;;;;;;;;-140.72;0.00;52674.94;5093354;28;19924;-72
2023/05/18 07:35:35;;;;;;;;;;;;;;;-140.72;0.00;52626.25;5083455;28;20401;-72
2023/05/18 07:38:00;;;;;;;;;;;;;;;-140.72;0.00;52656.69;5084144;28;19920;-72
2023/05/18 07:40:25;;;;;;;;;;;;;;;-140.72;0.00;52642.47;5093634;28;19973;-72
2023/05/18 07:42:51;;;;;;;;;;;;;;;-140.72;0.00;52640.44;5092919;28;19923;-72
2023/05/18 07:45:16;;;;;;;;;;;;;;;-140.72;0.00;52646.53;5090031;28;20451;-72
2023/05/18 07:47:41;;;;;;;;;;;;;;;-140.72;0.00;52658.72;5088209;28;20378;-78
2023/05/18 07:50:07;;;;;;;;;;;;;;;-140.72;0.00;52662.78;5116231;27;19930;-72
2023/05/18 07:52:32;;;;;;;;;;;;;;;-140.72;0.00;52656.69;5087280;28;20281;-73
2023/05/18 07:54:58;;;;;;;;;;;;;;;-140.72;0.00;52632.34;5087614;28;19928;-72
2023/05/18 07:57:24;;;;;;;;;;;;;;;-140.72;0.00;52612.03;5084543;28;19947;-74
2023/05/18 07:59:49;;;;;;;;;;;;;;;-140.72;0.00;52616.09;5085274;28;20390;-73
2023/05/18 08:02:18;;;;;;;;;;;;;;;-140.72;0.00;52612.03;5082911;28;19971;-73
2023/05/18 08:04:44;;;;;;;;;;;;;;;-140.72;0.00;52599.88;5086313;28;19920;-73
2023/05/18 08:07:09;;;;;;;;;;;;;;;-140.72;0.00;52610.00;5085378;28;19927;-71
2023/05/18 08:09:34;;;;;;;;;;;;;;;-140.72;0.00;52618.13;5088543;28;19921;-70
2023/05/18 08:12:00;;;;;;;;;;;;;;;-140.72;0.00;52593.78;5080472;28;20031;-70
2023/05/18 08:14:25;;;;;;;;;;;;;;;-140.72;0.00;52557.25;5086773;28;20298;-71
2023/05/18 08:16:50;;;;;;;;;;;;;;;-140.72;0.00;52583.63;5085386;28;19924;-71
2023/05/18 08:19:15;;;;;;;;;;;;;;;-140.72;0.00;52530.88;5088798;28;19920;-71
2023/05/18 08:21:41;;;;;;;;;;;;;;;-140.72;0.00;52597.84;5090999;28;19995;-72
2023/05/18 08:24:06;;;;;;;;;;;;;;;-140.72;0.00;52543.03;5085504;28;19927;-73
2023/05/18 08:26:32;;;;;;;;;;;;;;;-140.72;0.00;52516.66;5081853;28;19931;-72
2023/05/18 08:28:57;;;;;;;;;;;;;;;-140.72;0.00;52524.78;5084214;28;20011;-72
2023/05/18 08:31:22;;;;;;;;;;;;;;;-140.72;0.00;52520.72;5088740;28;19920;-72
2023/05/18 08:33:48;;;;;;;;;;;;;;;-140.72;0.00;52506.53;5089001;28;19926;-73
2023/05/18 08:36:13;;;;;;;;;;;;;;;-140.72;0.00;52516.66;5088429;28;19920;-72
2023/05/18 08:38:39;;;;;;;;;;;;;;;-140.72;0.00;52510.59;5087662;28;19927;-72
2023/05/18 08:41:11;;;;;;;;;;;;;;;-140.72;0.00;52520.72;5088897;28;19966;-72
2023/05/18 08:43:37;;;;;;;;;;;;;;;-140.72;0.00;52467.97;5083319;28;19920;-73
2023/05/18 08:46:25;;;;;;;;;;;;;;;-140.72;0.00;52465.94;5089627;28;19920;-72
2023/05/18 08:48:51;;;;;;;;;;;;;;;-140.72;0.00;52453.75;5088404;28;20324;-72
2023/05/18 08:51:18;;;;;;;;;;;;;;;-140.72;0.00;52435.50;5090339;28;20386;-73
2023/05/18 08:53:44;;;;;;;;;;;;;;;-140.72;0.00;52457.81;5088155;28;20000;-73
2023/05/18 08:56:10;;;;;;;;;;;;;;;-140.72;0.00;52476.09;5081881;28;20370;-74
2023/05/18 08:58:42;;;;;;;;;;;;;;;-140.72;0.00;52476.09;5090454;28;19920;-74
2023/05/18 09:01:08;;;;;;;;;;;;;;;-140.72;0.00;52439.56;5084064;28;19928;-76
2023/05/18 09:03:33;;;;;;;;;;;;;;;-140.72;0.00;52447.69;5094933;28;19927;-74
2023/05/18 09:05:59;;;;;;;;;;;;;;;-140.72;0.00;52419.28;5090416;28;19920;-75
2023/05/18 09:08:25;;;;;;;;;;;;;;;-140.72;0.00;52451.72;5092617;28;19916;-74
2023/05/18 09:10:51;;;;;;;;;;;;;;;-140.72;0.00;52429.41;5082610;28;19916;-74
2023/05/18 09:13:19;;;;;;;;;;;;;;;-140.72;0.00;52423.31;5092657;28;20348;-73
2023/05/18 09:15:45;;;;;;;;;;;;;;;-140.72;0.00;52352.31;5087878;28;19916;-73
2023/05/18 09:18:10;;;;;;;;;;;;;;;-140.72;0.00;52360.44;5090634;28;20007;-73
2023/05/18 09:20:35;;;;;;;;;;;;;;;-140.72;0.00;52386.81;5094305;28;19958;-73
2023/05/18 09:23:01;;;;;;;;;;;;;;;-140.72;0.00;52366.50;5093243;28;20243;-73
2023/05/18 09:25:29;;;;;;;;;;;;;;;-140.72;0.00;52376.66;5088760;28;19931;-73
2023/05/18 09:27:54;;;;;;;;;;;;;;;-140.72;0.00;52364.47;5095506;28;20010;-76
2023/05/18 09:30:19;;;;;;;;;;;;;;;-140.72;0.00;52366.50;5091905;28;19916;-74
2023/05/18 09:32:46;;;;;;;;;;;;;;;-140.72;0.00;52334.03;5107665;28;19942;-78
2023/05/18 09:35:11;;;;;;;;;;;;;;;-140.72;0.00;52394.91;5088939;28;20004;-73
2023/05/18 09:37:39;;;;;;;;;;;;;;;-140.72;0.00;52352.31;5083492;28;19977;-73
2023/05/18 09:40:06;;;;;;;;;;;;;;;-140.72;0.00;52386.81;5091920;28;19916;-74
2023/05/18 09:42:34;;;;;;;;;;;;;;;-140.72;0.00;52403.03;5092537;28;19962;-72
2023/05/18 09:44:59;;;;;;;;;;;;;;;-140.72;0.00;52374.63;5087096;28;20282;-73
2023/05/18 09:47:26;;;;;;;;;;;;;;;-140.72;0.00;52388.84;5091700;28;19920;-73
2023/05/18 09:49:51;;;;;;;;;;;;;;;-140.72;0.00;52364.47;5109396;27;19920;-73
2023/05/18 09:52:16;;;;;;;;;;;;;;;-140.72;0.00;52354.34;5089443;28;19927;-72
2023/05/18 09:54:42;;;;;;;;;;;;;;;-140.72;0.00;52382.75;5084754;28;19917;-73
2023/05/18 09:57:14;;;;;;;;;;;;;;;-140.72;0.00;52374.63;5090088;28;19977;-72
2023/05/18 09:59:40;;;;;;;;;;;;;;;-140.72;0.00;52325.94;5093244;28;19916;-72
2023/05/18 10:02:07;;;;;;;;;;;;;;;-140.72;0.00;52356.38;5088867;28;19942;-72
2023/05/18 10:04:39;;;;;;;;;;;;;;;-140.72;0.00;52315.78;5090319;28;19916;-70
2023/05/18 10:07:16;;;;;;;;;;;;;;;-140.72;0.00;52330.00;5090260;28;19960;-71
2023/05/18 10:09:42;;;;;;;;;;;;;;;-140.72;0.00;52344.19;5094315;28;20333;-74
2023/05/18 10:12:28;;;;;;;;;;;;;;;-140.72;0.00;52313.75;5083655;28;19956;-76
2023/05/18 10:14:53;;;;;;;;;;;;;;;-140.72;0.00;52313.75;5093211;28;20263;-75
2023/05/18 10:17:21;;;;;;;;;;;;;;;-140.72;0.00;52273.19;5085661;28;19926;-74
2023/05/18 10:19:49;;;;;;;;;;;;;;;-140.72;0.00;52256.94;5101898;28;19965;-73
2023/05/18 10:22:16;;;;;;;;;;;;;;;-140.72;0.00;52250.84;5093985;28;19981;-74
2023/05/18 10:24:44;;;;;;;;;;;;;;;-140.72;0.00;52273.19;5099262;28;19920;-74
2023/05/18 10:27:10;;;;;;;;;;;;;;;-140.72;0.00;52204.19;5091638;28;19950;-74
2023/05/18 10:29:39;;;;;;;;;;;;;;;-140.72;0.00;52175.78;5087812;28;19920;-74
2023/05/18 10:32:04;;;;;;;;;;;;;;;-140.72;0.00;52179.84;5111422;27;19931;-73
2023/05/18 10:34:31;;;;;;;;;;;;;;;-140.72;0.00;52173.75;5095286;28;20299;-73
2023/05/18 10:37:03;;;;;;;;;;;;;;;-140.72;0.00;52175.78;5091551;28;20413;-72
2023/05/18 10:39:29;;;;;;;;;;;;;;;-140.72;0.00;52175.78;5088689;28;19928;-72
2023/05/18 10:42:08;;;;;;;;;;;;;;;-140.72;0.00;52155.50;5089984;28;20604;-74
2023/05/18 10:44:34;;;;;;;;;;;;;;;-140.72;0.00;52173.75;5095322;28;20003;-73
2023/05/18 10:47:10;;;;;;;;;;;;;;;-140.72;0.00;52194.03;5091815;28;19920;-72
2023/05/18 10:49:36;;;;;;;;;;;;;;;-140.72;0.00;52165.63;5087694;28;19920;-73
2023/05/18 10:52:11;;;;;;;;;;;;;;;-140.72;0.00;52157.53;5096680;28;19926;-76
2023/05/18 10:54:39;;;;;;;;;;;;;;;-140.72;0.00;52129.13;5087114;28;19963;-73
2023/05/18 10:57:09;;;;;;;;;;;;;;;-140.72;0.00;52118.97;5095503;28;20350;-73
2023/05/18 10:59:50;;;;;;;;;;;;;;;-140.72;0.00;52165.63;5095879;28;20020;-72
2023/05/18 11:02:17;;;;;;;;;;;;;;;-140.72;0.00;52167.66;5093235;28;19916;-70
2023/05/18 11:04:42;;;;;;;;;;;;;;;-140.72;0.00;52171.72;5092652;28;19928;-71
2023/05/18 11:07:11;;;;;;;;;;;;;;;-140.72;0.00;52145.34;5086283;28;19931;-72
2023/05/18 11:09:39;;;;;;;;;;;;;;;-140.72;0.00;52127.09;5096952;28;19916;-71
2023/05/18 11:12:09;;;;;;;;;;;;;;;-140.72;0.00;52210.28;5089256;28;19923;-72
2023/05/18 11:14:40;;;;;;;;;;;;;;;-140.72;0.00;52226.50;5093890;28;20326;-72
2023/05/18 11:20:15;;;;;;;;;;;;;;;-140.72;0.00;52246.78;5091381;28;19927;-71
2023/05/18 11:22:58;;;;;;;;;;;;;;;-140.72;0.00;52244.78;5081262;28;20297;-72
2023/05/18 11:25:26;;;;;;;;;;;;;;;-140.72;0.00;52175.78;5082107;28;19927;-71
2023/05/18 11:28:18;;;;;;;;;;;;;;;-140.72;0.00;52187.97;5099272;27;19942;-72
2023/05/18 11:30:45;;;;;;;;;;;;;;;-140.72;0.00;52171.72;5080369;28;20375;-74
2023/05/18 11:33:13;;;;;;;;;;;;;;;-140.72;0.00;52127.09;5091659;28;20281;-74
2023/05/18 11:35:55;;;;;;;;;;;;;;;-140.72;0.00;52173.75;5085881;28;19917;-77
2023/05/18 11:38:21;;;;;;;;;;;;;;;-140.72;0.00;52187.97;5078659;28;19960;-75
2023/05/18 11:40:47;;;;;;;;;;;;;;;-140.72;0.00;52145.34;5084303;28;20538;-76
2023/05/18 11:43:19;;;;;;;;;;;;;;;-140.72;0.00;52185.94;5094499;28;20363;-74
2023/05/18 11:45:56;;;;;;;;;;;;;;;-140.72;0.00;52127.09;5093904;28;20358;-81
2023/05/18 11:48:22;;;;;;;;;;;;;;;-140.72;0.00;52114.91;5077743;28;20049;-72
2023/05/18 11:50:48;;;;;;;;;;;;;;;-140.72;0.00;52108.81;5089609;28;19993;-72
2023/05/18 11:53:17;;;;;;;;;;;;;;;-140.72;0.00;52198.09;5085164;28;20337;-72
2023/05/18 11:55:42;;;;;;;;;;;;;;;-140.72;0.00;52147.38;5080253;28;19923;-73
2023/05/18 11:58:08;;;;;;;;;;;;;;;-140.72;0.00;52106.78;5085340;28;19916;-74
2023/05/18 12:00:35;;;;;;;;;;;;;;;-140.72;0.00;52118.97;5091456;28;19920;-74
2023/05/18 12:03:00;;;;;;;;;;;;;;;-140.72;0.00;52098.69;5089616;28;20518;-74
2023/05/18 12:05:29;;;;;;;;;;;;;;;-140.72;0.00;52074.34;5082718;28;19921;-74
2023/05/18 12:07:54;;;;;;;;;;;;;;;-140.72;0.00;52088.53;5085489;28;19973;-77
2023/05/18 12:10:20;;;;;;;;;;;;;;;-140.72;0.00;52066.22;5083848;28;20379;-73
2023/05/18 12:12:52;;;;;;;;;;;;;;;-140.72;0.00;52033.75;5083443;28;20039;-73
2023/05/18 12:15:20;;;;;;;;;;;;;;;-140.72;0.00;52039.84;5085944;28;19930;-73
2023/05/18 12:17:58;;;;;;;;;;;;;;;-140.72;0.00;52049.97;5087007;28;20382;-73
2023/05/18 12:20:27;;;;;;;;;;;;;;;-140.72;0.00;52009.41;5086869;28;19916;-72
2023/05/18 12:22:53;;;;;;;;;;;;;;;-140.72;0.00;51989.13;5084767;28;20282;-72
2023/05/18 12:25:19;;;;;;;;;;;;;;;-140.72;0.00;51983.03;5089051;28;19920;-73
2023/05/18 12:27:46;;;;;;;;;;;;;;;-140.72;0.00;51928.25;5084657;28;19920;-74
2023/05/18 12:30:12;;;;;;;;;;;;;;;-140.72;0.00;51956.66;5087893;28;19921;-72
2023/05/18 12:32:38;;;;;;;;;;;;;;;-140.72;0.00;51916.06;5116019;27;19924;-72
2023/05/18 12:35:04;;;;;;;;;;;;;;;-140.72;0.00;51875.50;5087364;28;20374;-72